Newport, North Carolina
Current Conditions -  °F | °C
As of 8:54 AM on Monday 22 Dec 2014 (Local Time) from KNKT Reporting Station
Haze Haze  
Wind Chill: 50°   Ceiling: 300
Heat Index: 50°   Visibility: 2.5mi
Dew Point: 49°   Wind: 7mph
Humidity: 96%   Direction: 360°N
Pressure: 30.06"   Gusts: NA
Location:  34.79°N, 76.86°W
Report Text: KNKT 221354Z 36006KT 2 1/2SM BR OVC003 10/09 A3006 RMK AO2 SFC VIS 5 RAB14E26 SLP176 VIS S 1 P0000 T01000094 $
Loading
Personal Weather Stations






























Interactive Weather Map New forecast layout! Learn more

10-Day Weather Forecast

Advertisements
Track Severe Weather on mobile